TimeMDT,TemperatureF,Dew PointF,Humidity,Sea Level PressureIn,VisibilityMPH,Wind Direction,Wind SpeedMPH,Gust SpeedMPH,PrecipitationIn,Events,Conditions,WindDirDegrees,DateUTC
12:53 AM,44.1,37.0,76,29.94,10.0,Calm,Calm,-,N/A,,Overcast,0,2012-10-14 06:53:00
1:53 AM,39.9,35.1,83,29.95,10.0,Calm,Calm,-,N/A,,Partly Cloudy,0,2012-10-14 07:53:00
2:53 AM,37.9,35.1,89,29.96,10.0,SSW,3.5,-,N/A,,Clear,210,2012-10-14 08:53:00
3:53 AM,42.1,37.0,82,29.97,10.0,West,5.8,-,N/A,,Clear,260,2012-10-14 09:53:00
4:53 AM,43.0,37.0,80,29.98,10.0,WSW,5.8,-,N/A,,Clear,240,2012-10-14 10:53:00
5:53 AM,43.0,37.9,82,30.00,10.0,WSW,4.6,-,N/A,,Clear,240,2012-10-14 11:53:00
6:53 AM,44.1,37.9,79,30.00,10.0,WSW,6.9,-,N/A,,Clear,240,2012-10-14 12:53:00
7:53 AM,43.0,37.0,80,30.02,10.0,WSW,4.6,-,N/A,,Clear,240,2012-10-14 13:53:00
8:53 AM,46.0,39.0,76,30.03,10.0,WSW,10.4,-,N/A,,Clear,240,2012-10-14 14:53:00
9:53 AM,52.0,41.0,66,30.02,10.0,WSW,11.5,-,N/A,,Clear,240,2012-10-14 15:53:00
10:53 AM,57.0,41.0,55,30.01,10.0,WSW,11.5,-,N/A,,Clear,240,2012-10-14 16:53:00
11:53 AM,62.1,39.9,44,29.99,10.0,WSW,10.4,-,N/A,,Clear,240,2012-10-14 17:53:00
12:53 PM,66.0,37.9,36,29.97,10.0,West,12.7,-,N/A,,Clear,270,2012-10-14 18:53:00
1:53 PM,64.9,37.9,37,29.96,10.0,WSW,15.0,-,N/A,,Clear,250,2012-10-14 19:53:00
2:53 PM,69.1,37.0,31,29.92,10.0,West,12.7,-,N/A,,Clear,270,2012-10-14 20:53:00
3:53 PM,70.0,36.0,29,29.91,10.0,West,17.3,24.2,N/A,,Clear,260,2012-10-14 21:53:00
4:53 PM,68.0,37.0,32,29.89,10.0,WSW,8.1,-,N/A,,Clear,240,2012-10-14 22:53:00
5:53 PM,63.0,37.0,38,29.88,10.0,South,3.5,-,N/A,,Mostly Cloudy,180,2012-10-14 23:53:00
6:53 PM,60.1,39.0,46,29.86,10.0,Calm,Calm,-,N/A,,Overcast,0,2012-10-15 00:53:00
7:53 PM,57.0,37.9,49,29.85,10.0,Calm,Calm,-,N/A,,Mostly Cloudy,0,2012-10-15 01:53:00
8:53 PM,55.9,39.0,53,29.84,10.0,Calm,Calm,-,N/A,,Overcast,0,2012-10-15 02:53:00
9:53 PM,57.0,39.0,51,29.81,10.0,Calm,Calm,-,N/A,,Overcast,0,2012-10-15 03:53:00
10:53 PM,54.0,39.9,59,29.79,9.0,Calm,Calm,-,N/A,,Scattered Clouds,0,2012-10-15 04:53:00
11:53 PM,55.0,41.0,59,29.76,10.0,SSW,3.5,-,N/A,,Mostly Cloudy,200,2012-10-15 05:53:00